Time;durP1;ratioP1;P1;durP2;ratioP2;P2;SDS_P1;SDS_P2;PMS_P1;PMS_P2;Temp;Humidity;BMP_temperature;BMP_pressure;BME280_temperature;BME280_humidity;BME280_pressure;Samples;Min_cycle;Max_cycle;Signal;HPM_P1;HPM_P2
2022/07/19 00:01:46;;;;;;;1.60;0.98;;;23.50;57.30;;;;;;5091024;28;20051;-74
2022/07/19 00:04:11;;;;;;;2.33;1.30;;;23.50;57.30;;;;;;5090924;28;20501;-74
2022/07/19 00:06:37;;;;;;;2.70;1.15;;;23.50;57.40;;;;;;5091112;28;20032;-74
2022/07/19 00:09:04;;;;;;;1.70;1.08;;;23.50;57.30;;;;;;5090669;28;20461;-74
2022/07/19 00:11:29;;;;;;;2.70;1.50;;;23.50;57.30;;;;;;5090723;28;20078;-74
2022/07/19 00:13:55;;;;;;;2.20;1.50;;;23.50;57.30;;;;;;5091921;28;20076;-74
2022/07/19 00:16:21;;;;;;;2.65;1.25;;;23.50;57.30;;;;;;5090548;28;20398;-74
2022/07/19 00:18:47;;;;;;;2.72;1.35;;;23.50;57.30;;;;;;5092068;28;20094;-74
2022/07/19 00:21:12;;;;;;;2.00;1.20;;;23.50;57.40;;;;;;5090153;28;20060;-74
2022/07/19 00:23:38;;;;;;;2.22;1.27;;;23.50;57.40;;;;;;5090838;28;20063;-74
2022/07/19 00:26:04;;;;;;;2.00;1.25;;;23.40;57.30;;;;;;5091004;28;20383;-74
2022/07/19 00:28:30;;;;;;;1.88;1.10;;;23.50;57.40;;;;;;5090581;28;20471;-74
2022/07/19 00:30:56;;;;;;;1.70;1.23;;;23.40;57.30;;;;;;5090577;28;20043;-74
2022/07/19 00:33:21;;;;;;;2.50;1.10;;;23.40;57.40;;;;;;5090769;28;20100;-75
2022/07/19 00:35:47;;;;;;;3.75;1.02;;;23.50;57.40;;;;;;5090501;28;20028;-74
2022/07/19 00:38:14;;;;;;;2.03;1.05;;;23.40;57.30;;;;;;5090779;28;20028;-74
2022/07/19 00:40:41;;;;;;;3.67;1.65;;;23.40;57.40;;;;;;5090830;28;20086;-74
2022/07/19 00:43:10;;;;;;;2.17;1.42;;;23.40;57.40;;;;;;5091678;28;20093;-74
2022/07/19 00:45:36;;;;;;;2.38;1.33;;;23.40;57.40;;;;;;5090450;28;20548;-74
2022/07/19 00:48:02;;;;;;;2.22;1.38;;;23.40;57.40;;;;;;5090621;28;20115;-74
2022/07/19 00:50:28;;;;;;;1.90;1.10;;;23.40;57.40;;;;;;5090749;28;20035;-74
2022/07/19 00:53:00;;;;;;;4.25;1.33;;;23.40;57.40;;;;;;5090334;28;20602;-74
2022/07/19 00:55:28;;;;;;;3.85;1.42;;;23.40;57.40;;;;;;5090600;28;20094;-74
2022/07/19 00:57:55;;;;;;;1.50;1.08;;;23.40;57.40;;;;;;5090238;28;20048;-74
2022/07/19 01:00:21;;;;;;;2.40;1.30;;;23.40;57.40;;;;;;5090473;28;20036;-74
2022/07/19 01:02:51;;;;;;;2.13;1.10;;;23.40;57.40;;;;;;5090206;28;20434;-74
2022/07/19 01:05:17;;;;;;;2.45;1.23;;;23.40;57.40;;;;;;5090127;28;20040;-74
2022/07/19 01:07:43;;;;;;;1.65;1.25;;;23.30;57.40;;;;;;5090172;28;20089;-74
2022/07/19 01:10:14;;;;;;;2.83;1.33;;;23.30;57.40;;;;;;5090305;28;20044;-74
2022/07/19 01:12:41;;;;;;;2.05;1.38;;;23.30;57.40;;;;;;5090226;28;20044;-74
2022/07/19 01:15:25;;;;;;;3.08;1.17;;;23.30;57.50;;;;;;5090389;28;20127;-75
2022/07/19 01:17:51;;;;;;;2.60;1.40;;;23.30;57.50;;;;;;5090416;28;20043;-75
2022/07/19 01:20:17;;;;;;;1.88;1.00;;;23.30;57.50;;;;;;5090089;28;20048;-74
2022/07/19 01:22:44;;;;;;;2.80;1.50;;;23.30;57.50;;;;;;5091185;28;20090;-74
2022/07/19 01:25:10;;;;;;;1.45;1.05;;;23.30;57.50;;;;;;5089982;28;20047;-74
2022/07/19 01:27:40;;;;;;;2.03;1.17;;;23.30;57.60;;;;;;5090246;28;20059;-74
2022/07/19 01:30:17;;;;;;;1.90;1.13;;;23.20;57.50;;;;;;5092757;28;20036;-74
2022/07/19 01:32:43;;;;;;;2.65;1.27;;;23.20;57.50;;;;;;5093921;28;20044;-75
2022/07/19 01:35:09;;;;;;;3.00;1.35;;;23.20;57.50;;;;;;5093725;28;20485;-74
2022/07/19 01:37:35;;;;;;;3.28;1.00;;;23.20;57.50;;;;;;5094941;28;20129;-75
2022/07/19 01:40:04;;;;;;;2.75;1.13;;;23.20;57.50;;;;;;5094739;28;20138;-74
2022/07/19 01:42:30;;;;;;;1.85;1.35;;;23.20;57.60;;;;;;5093497;28;20050;-74
2022/07/19 01:44:56;;;;;;;2.10;1.10;;;23.20;57.60;;;;;;5093775;28;20036;-75
2022/07/19 01:47:22;;;;;;;2.88;1.40;;;23.20;57.60;;;;;;5093456;28;20039;-75
2022/07/19 01:49:48;;;;;;;2.13;1.50;;;23.20;57.60;;;;;;5093713;28;20028;-75
2022/07/19 01:52:13;;;;;;;2.40;1.60;;;23.20;57.60;;;;;;5094642;28;20067;-74
2022/07/19 01:54:39;;;;;;;2.67;1.30;;;23.20;57.60;;;;;;5093262;28;20052;-75
2022/07/19 01:57:05;;;;;;;1.70;1.00;;;23.20;57.60;;;;;;5093234;28;20044;-75
2022/07/19 01:59:30;;;;;;;1.63;0.77;;;23.20;57.60;;;;;;5093205;28;20065;-74
2022/07/19 02:01:56;;;;;;;2.08;1.15;;;23.20;57.60;;;;;;5093157;28;20047;-75
2022/07/19 02:04:21;;;;;;;1.50;0.90;;;23.20;57.60;;;;;;5093066;28;20079;-74
2022/07/19 02:06:47;;;;;;;2.15;1.10;;;23.20;57.70;;;;;;5093329;28;20040;-75
2022/07/19 02:09:13;;;;;;;2.25;1.23;;;23.10;57.50;;;;;;5093087;28;20082;-74
2022/07/19 02:11:38;;;;;;;2.80;1.20;;;23.10;57.50;;;;;;5094194;28;20048;-75
2022/07/19 02:14:06;;;;;;;1.98;1.42;;;23.10;57.50;;;;;;5093258;28;20391;-75
2022/07/19 02:16:32;;;;;;;2.22;1.13;;;23.10;57.50;;;;;;5092677;28;20055;-74
2022/07/19 02:18:58;;;;;;;1.40;1.10;;;23.10;57.60;;;;;;5092896;28;20044;-75
2022/07/19 02:21:23;;;;;;;2.85;1.15;;;23.10;57.60;;;;;;5092310;28;20048;-74
2022/07/19 02:23:49;;;;;;;4.70;1.30;;;23.10;57.50;;;;;;5094034;28;20055;-75
2022/07/19 02:26:15;;;;;;;2.00;1.70;;;23.10;57.50;;;;;;5092552;28;20044;-75
2022/07/19 02:28:40;;;;;;;1.73;0.93;;;23.10;57.50;;;;;;5092972;28;20051;-74
2022/07/19 02:31:06;;;;;;;2.83;1.35;;;23.10;57.60;;;;;;5092854;28;20376;-74
2022/07/19 02:33:31;;;;;;;1.77;1.00;;;23.10;57.60;;;;;;5092832;28;20150;-74
2022/07/19 02:35:57;;;;;;;2.58;1.30;;;23.10;57.50;;;;;;5092450;28;20551;-74
2022/07/19 02:38:23;;;;;;;2.00;1.15;;;23.10;57.50;;;;;;5093748;28;20039;-74
2022/07/19 02:40:49;;;;;;;1.73;1.10;;;23.10;57.50;;;;;;5092298;28;20044;-75
2022/07/19 02:43:14;;;;;;;2.05;1.13;;;23.10;57.50;;;;;;5092266;28;20068;-74
2022/07/19 02:45:40;;;;;;;2.63;1.13;;;23.10;57.50;;;;;;5092270;28;20467;-75
2022/07/19 02:48:06;;;;;;;1.55;1.23;;;23.10;57.50;;;;;;5092513;28;20040;-74
2022/07/19 02:50:32;;;;;;;2.15;0.85;;;23.00;57.50;;;;;;5092331;28;20451;-75
2022/07/19 02:52:57;;;;;;;1.25;0.82;;;23.00;57.50;;;;;;5089280;28;20437;-74
2022/07/19 02:55:23;;;;;;;3.55;1.35;;;23.00;57.40;;;;;;5095289;28;20092;-74
2022/07/19 02:57:49;;;;;;;2.72;1.48;;;23.00;57.40;;;;;;5113624;28;20044;-74
2022/07/19 03:00:15;;;;;;;2.17;1.30;;;23.00;57.40;;;;;;5095474;28;20040;-75
2022/07/19 03:02:43;;;;;;;1.52;1.02;;;23.00;57.40;;;;;;5095261;28;20480;-74
2022/07/19 03:05:09;;;;;;;3.15;1.45;;;23.00;57.40;;;;;;5095084;28;20040;-74
2022/07/19 03:07:35;;;;;;;1.73;1.08;;;23.00;57.40;;;;;;5113625;28;20034;-75
2022/07/19 03:10:01;;;;;;;2.33;1.33;;;23.00;57.40;;;;;;5095516;28;20055;-75
2022/07/19 03:12:26;;;;;;;2.60;1.42;;;23.00;57.40;;;;;;5095098;28;20482;-75
2022/07/19 03:14:52;;;;;;;1.70;0.90;;;23.00;57.40;;;;;;5095236;28;20051;-75
2022/07/19 03:17:18;;;;;;;3.20;1.15;;;23.00;57.40;;;;;;5095077;28;20564;-75
2022/07/19 03:19:43;;;;;;;2.30;1.05;;;23.00;57.40;;;;;;5108873;28;20093;-75
2022/07/19 03:22:09;;;;;;;1.92;1.23;;;22.90;57.40;;;;;;5092934;28;20139;-75
2022/07/19 03:24:34;;;;;;;1.33;0.75;;;22.90;57.40;;;;;;5091678;28;20061;-75
2022/07/19 03:27:00;;;;;;;1.77;1.20;;;22.90;57.30;;;;;;5091834;28;20036;-75
2022/07/19 03:29:26;;;;;;;2.85;1.52;;;22.90;57.30;;;;;;5092697;28;20622;-75
2022/07/19 03:31:51;;;;;;;3.05;1.63;;;22.90;57.30;;;;;;5091447;28;20047;-75
2022/07/19 03:34:17;;;;;;;3.28;1.25;;;22.90;57.30;;;;;;5091375;28;20123;-74
2022/07/19 03:36:43;;;;;;;1.45;0.80;;;22.90;57.40;;;;;;5091751;28;20035;-75
2022/07/19 03:39:08;;;;;;;1.52;1.27;;;22.90;57.30;;;;;;5092762;28;20422;-75
2022/07/19 03:41:34;;;;;;;2.35;1.35;;;22.90;57.30;;;;;;5091254;28;20044;-75
2022/07/19 03:44:00;;;;;;;2.55;1.25;;;22.90;57.30;;;;;;5091766;28;20044;-74
2022/07/19 03:46:28;;;;;;;1.85;0.95;;;22.90;57.30;;;;;;5093180;28;20040;-75
2022/07/19 03:48:56;;;;;;;2.35;0.93;;;22.90;57.30;;;;;;5091284;28;20059;-75
2022/07/19 03:51:23;;;;;;;2.75;1.17;;;22.90;57.30;;;;;;5090818;28;20055;-74
2022/07/19 03:53:48;;;;;;;1.90;1.02;;;22.90;57.30;;;;;;5091096;28;20146;-74
2022/07/19 03:56:15;;;;;;;1.85;1.08;;;22.90;57.30;;;;;;5091271;28;20123;-75
2022/07/19 03:58:40;;;;;;;2.33;1.38;;;22.90;57.30;;;;;;5090961;28;20538;-74
2022/07/19 04:01:06;;;;;;;1.80;1.23;;;22.90;57.30;;;;;;5090820;28;20115;-74
2022/07/19 04:03:37;;;;;;;1.65;1.08;;;22.90;57.30;;;;;;5092137;28;20133;-74
2022/07/19 04:06:04;;;;;;;3.00;1.35;;;22.90;57.30;;;;;;5090949;28;20032;-75
2022/07/19 04:08:30;;;;;;;2.20;1.20;;;22.90;57.30;;;;;;5090753;28;20036;-75
2022/07/19 04:10:55;;;;;;;2.80;1.75;;;22.80;57.30;;;;;;5090895;28;20122;-74
2022/07/19 04:13:21;;;;;;;1.70;0.80;;;22.80;57.20;;;;;;5092063;28;20039;-75
2022/07/19 04:15:49;;;;;;;2.08;1.38;;;22.80;57.20;;;;;;5090737;28;20046;-74
2022/07/19 04:18:16;;;;;;;3.35;1.15;;;22.80;57.30;;;;;;5091968;28;20043;-74
2022/07/19 04:20:41;;;;;;;2.13;1.48;;;22.80;57.20;;;;;;5093756;28;20043;-74
2022/07/19 04:23:07;;;;;;;2.88;1.40;;;22.80;57.30;;;;;;5094119;28;20047;-74
2022/07/19 04:25:36;;;;;;;1.75;1.02;;;22.80;57.20;;;;;;5094181;28;20028;-75
2022/07/19 04:28:03;;;;;;;2.38;1.20;;;22.80;57.20;;;;;;5093993;28;20040;-74
2022/07/19 04:30:29;;;;;;;2.42;1.15;;;22.80;57.20;;;;;;5093941;28;20076;-74
2022/07/19 04:32:54;;;;;;;2.20;1.55;;;22.80;57.20;;;;;;5094309;28;20039;-75
2022/07/19 04:35:20;;;;;;;2.20;1.10;;;22.80;57.20;;;;;;5112264;28;20435;-75
2022/07/19 04:37:46;;;;;;;1.98;1.30;;;22.80;57.20;;;;;;5112314;28;20044;-75
2022/07/19 04:40:12;;;;;;;2.55;1.38;;;22.80;57.20;;;;;;5093888;28;20051;-75
2022/07/19 04:42:38;;;;;;;2.40;1.25;;;22.80;57.20;;;;;;5112139;28;20395;-74
2022/07/19 04:45:05;;;;;;;1.80;1.08;;;22.80;57.20;;;;;;5093789;28;20042;-74
2022/07/19 04:47:31;;;;;;;2.05;1.35;;;22.80;57.20;;;;;;5093964;28;20122;-74
2022/07/19 04:49:56;;;;;;;1.65;1.17;;;22.80;57.20;;;;;;5093713;28;20074;-74
2022/07/19 04:52:25;;;;;;;1.40;0.75;;;22.80;57.20;;;;;;5112107;28;20039;-74
2022/07/19 04:54:51;;;;;;;2.05;1.15;;;22.80;57.20;;;;;;5094081;28;20465;-75
2022/07/19 04:57:17;;;;;;;2.17;1.40;;;22.80;57.20;;;;;;5093750;28;20131;-74
2022/07/19 04:59:42;;;;;;;4.03;1.35;;;22.80;57.30;;;;;;5093944;28;20134;-75
2022/07/19 05:02:08;;;;;;;2.13;1.23;;;22.80;57.20;;;;;;5093687;28;20093;-75
2022/07/19 05:04:34;;;;;;;1.85;1.25;;;22.80;57.20;;;;;;5095811;28;20398;-75
2022/07/19 05:06:59;;;;;;;1.67;1.20;;;22.80;57.20;;;;;;5097655;28;20039;-75
2022/07/19 05:09:27;;;;;;;1.92;1.20;;;22.80;57.20;;;;;;5097521;28;20031;-75
2022/07/19 05:11:53;;;;;;;1.85;1.23;;;22.80;57.20;;;;;;5097760;28;20074;-75
2022/07/19 05:14:20;;;;;;;2.65;1.08;;;22.80;57.20;;;;;;5097498;28;20492;-75
2022/07/19 05:16:48;;;;;;;2.75;1.70;;;22.80;57.20;;;;;;5097712;28;20043;-75
2022/07/19 05:19:13;;;;;;;1.83;0.93;;;22.80;57.30;;;;;;5097331;28;20071;-75
2022/07/19 05:21:39;;;;;;;2.55;1.52;;;22.80;57.20;;;;;;5088534;28;20091;-75
2022/07/19 05:24:05;;;;;;;1.63;0.80;;;22.80;57.30;;;;;;5076945;28;20505;-75
2022/07/19 05:26:31;;;;;;;2.28;1.27;;;22.80;57.30;;;;;;5077167;28;20040;-75
2022/07/19 05:28:57;;;;;;;1.67;1.13;;;22.80;57.30;;;;;;5077121;28;20044;-74
2022/07/19 05:31:23;;;;;;;1.42;1.00;;;22.80;57.30;;;;;;5076755;28;20520;-74
2022/07/19 05:33:48;;;;;;;1.83;1.15;;;22.80;57.30;;;;;;5076954;28;20055;-74
2022/07/19 05:36:14;;;;;;;2.83;1.10;;;22.80;57.30;;;;;;5077096;28;20036;-74
2022/07/19 05:38:40;;;;;;;2.47;1.15;;;22.80;57.30;;;;;;5076644;28;20051;-74
2022/07/19 05:41:07;;;;;;;1.60;1.00;;;22.80;57.30;;;;;;5076880;28;20125;-74
2022/07/19 05:43:35;;;;;;;1.70;1.08;;;22.80;57.40;;;;;;5076828;28;20047;-74
2022/07/19 05:46:01;;;;;;;1.90;1.42;;;22.80;57.40;;;;;;5076613;28;20044;-74
2022/07/19 05:48:26;;;;;;;1.73;1.13;;;22.80;57.40;;;;;;5094664;28;20072;-75
2022/07/19 05:50:52;;;;;;;1.95;1.00;;;22.80;57.40;;;;;;5094707;28;20046;-74
2022/07/19 05:53:18;;;;;;;1.73;1.10;;;22.80;57.40;;;;;;5076352;28;20055;-74
2022/07/19 05:55:45;;;;;;;1.42;1.00;;;22.80;57.40;;;;;;5094697;28;20051;-74
2022/07/19 05:58:10;;;;;;;2.60;1.52;;;22.80;57.40;;;;;;5094637;28;20046;-74
2022/07/19 06:00:36;;;;;;;1.75;1.30;;;22.80;57.40;;;;;;5076369;28;20611;-74
2022/07/19 06:03:02;;;;;;;1.33;0.90;;;22.80;57.40;;;;;;5076273;28;20044;-75
2022/07/19 06:05:28;;;;;;;1.38;0.93;;;22.80;57.40;;;;;;5076311;28;20040;-74
2022/07/19 06:07:56;;;;;;;1.75;1.02;;;22.80;57.40;;;;;;5094440;28;20119;-74
2022/07/19 06:10:22;;;;;;;3.03;1.15;;;22.80;57.40;;;;;;5076217;28;20131;-74
2022/07/19 06:12:47;;;;;;;1.25;1.08;;;22.80;57.50;;;;;;5076014;28;20067;-74
2022/07/19 06:15:13;;;;;;;1.85;1.08;;;22.80;57.50;;;;;;5093760;28;20035;-75
2022/07/19 06:17:39;;;;;;;1.95;1.30;;;22.70;57.40;;;;;;5076297;28;20044;-75
2022/07/19 06:20:05;;;;;;;1.95;1.10;;;22.80;57.50;;;;;;5086581;28;20423;-75
2022/07/19 06:22:31;;;;;;;1.90;1.00;;;22.80;57.50;;;;;;5088123;28;20534;-74
2022/07/19 06:24:58;;;;;;;2.20;0.88;;;22.80;57.50;;;;;;5093982;28;20047;-74
2022/07/19 06:27:23;;;;;;;2.28;1.13;;;22.80;57.50;;;;;;5092951;28;20062;-74
2022/07/19 06:29:49;;;;;;;2.20;1.27;;;22.80;57.50;;;;;;5092600;28;20514;-74
2022/07/19 06:32:15;;;;;;;2.08;1.38;;;22.80;57.50;;;;;;5092597;28;20044;-74
2022/07/19 06:34:40;;;;;;;2.28;1.25;;;22.80;57.50;;;;;;5093874;28;20051;-74
2022/07/19 06:37:06;;;;;;;1.98;1.33;;;22.80;57.50;;;;;;5092808;28;20024;-75
2022/07/19 06:39:32;;;;;;;2.10;1.20;;;22.80;57.50;;;;;;5092416;28;20059;-74
2022/07/19 06:41:58;;;;;;;2.55;1.50;;;22.80;57.50;;;;;;5092638;28;20040;-74
2022/07/19 06:44:24;;;;;;;1.85;1.10;;;22.80;57.50;;;;;;5093701;28;20082;-74
2022/07/19 06:46:49;;;;;;;2.20;1.08;;;22.80;57.50;;;;;;5092302;28;20548;-75
2022/07/19 06:49:15;;;;;;;2.08;1.17;;;22.80;57.50;;;;;;5093542;28;20054;-74
2022/07/19 06:51:41;;;;;;;1.50;1.20;;;22.80;57.40;;;;;;5092302;28;20044;-74
2022/07/19 06:54:06;;;;;;;1.85;1.20;;;22.80;57.50;;;;;;5092155;28;20193;-75
2022/07/19 06:56:32;;;;;;;2.30;1.60;;;22.80;57.50;;;;;;5093629;28;20056;-74
2022/07/19 06:58:58;;;;;;;2.75;1.40;;;22.80;57.40;;;;;;5092151;28;20040;-74
2022/07/19 07:01:24;;;;;;;2.17;1.45;;;22.80;57.40;;;;;;5093137;28;20067;-75
2022/07/19 07:03:49;;;;;;;1.92;1.23;;;22.80;57.40;;;;;;5092291;28;20062;-76
2022/07/19 07:06:18;;;;;;;1.85;1.20;;;22.80;57.50;;;;;;5092160;28;20546;-74
2022/07/19 07:08:43;;;;;;;1.40;0.88;;;22.80;57.40;;;;;;5091960;28;20503;-74
2022/07/19 07:11:09;;;;;;;1.58;1.02;;;22.80;57.40;;;;;;5093116;28;20039;-74
2022/07/19 07:13:34;;;;;;;2.10;1.13;;;22.80;57.40;;;;;;5092170;28;20391;-74
2022/07/19 07:16:00;;;;;;;1.90;1.40;;;22.80;57.40;;;;;;5092993;28;20110;-75
2022/07/19 07:18:26;;;;;;;1.33;1.10;;;22.90;57.40;;;;;;5093072;28;20054;-74
2022/07/19 07:20:51;;;;;;;3.60;1.42;;;22.90;57.40;;;;;;5082648;28;20044;-74
2022/07/19 07:23:19;;;;;;;2.30;1.10;;;22.90;57.50;;;;;;5095001;28;20043;-74
2022/07/19 07:25:44;;;;;;;1.80;1.35;;;22.90;57.40;;;;;;5113050;28;20042;-74
2022/07/19 07:28:10;;;;;;;1.92;1.08;;;22.90;57.40;;;;;;5112574;28;20031;-74
2022/07/19 07:30:36;;;;;;;2.13;1.40;;;22.90;57.50;;;;;;5094871;28;20058;-74
2022/07/19 07:33:01;;;;;;;1.50;0.93;;;22.90;57.40;;;;;;5095006;28;20043;-74
2022/07/19 07:35:27;;;;;;;1.73;1.20;;;22.90;57.40;;;;;;5094967;28;20113;-74
2022/07/19 07:37:53;;;;;;;1.92;1.33;;;22.90;57.40;;;;;;5094866;28;20655;-74
2022/07/19 07:40:18;;;;;;;2.25;1.27;;;22.90;57.40;;;;;;5094590;28;20047;-74
2022/07/19 07:42:44;;;;;;;1.90;1.20;;;22.90;57.40;;;;;;5094663;28;20036;-74
2022/07/19 07:45:10;;;;;;;1.35;0.98;;;22.90;57.40;;;;;;5112905;28;20402;-74
2022/07/19 07:47:36;;;;;;;1.80;1.13;;;22.90;57.40;;;;;;5090104;28;20028;-74
2022/07/19 07:50:03;;;;;;;1.90;1.33;;;22.90;57.40;;;;;;5072984;28;20119;-74
2022/07/19 07:52:29;;;;;;;1.88;1.48;;;22.90;57.40;;;;;;5096198;28;20398;-74
2022/07/19 07:54:54;;;;;;;1.40;1.10;;;22.90;57.40;;;;;;5094600;28;20130;-74
2022/07/19 07:57:21;;;;;;;1.85;1.10;;;22.90;57.40;;;;;;5112762;28;20553;-74
2022/07/19 07:59:46;;;;;;;2.70;1.20;;;22.90;57.40;;;;;;5094232;28;20035;-73
2022/07/19 08:02:12;;;;;;;3.83;1.00;;;22.90;57.40;;;;;;5094283;28;20047;-74
2022/07/19 08:04:37;;;;;;;1.42;0.80;;;22.90;58.10;;;;;;5094189;28;20483;-74
2022/07/19 08:07:03;;;;;;;1.55;1.10;;;22.90;57.40;;;;;;5094144;28;20039;-74
2022/07/19 08:09:29;;;;;;;2.85;1.02;;;22.90;57.40;;;;;;5094269;28;20071;-74
2022/07/19 08:11:55;;;;;;;2.30;1.30;;;23.00;57.50;;;;;;5112289;28;20428;-74
2022/07/19 08:14:21;;;;;;;3.38;1.35;;;23.00;57.60;;;;;;5094143;28;20040;-74
2022/07/19 08:16:46;;;;;;;1.73;1.20;;;23.00;57.70;;;;;;5080193;28;20126;-74
2022/07/19 08:19:12;;;;;;;2.10;1.30;;;23.00;57.70;;;;;;5091996;28;20131;-74
2022/07/19 08:21:38;;;;;;;2.03;1.30;;;23.00;57.70;;;;;;5093751;28;20052;-74
2022/07/19 08:24:07;;;;;;;1.98;1.45;;;23.00;57.70;;;;;;5093904;28;20040;-74
2022/07/19 08:26:32;;;;;;;1.80;1.33;;;23.00;57.70;;;;;;5112230;28;20075;-74
2022/07/19 08:28:58;;;;;;;3.05;1.42;;;23.00;57.60;;;;;;5093714;28;20487;-73
2022/07/19 08:31:24;;;;;;;2.47;1.05;;;23.10;57.60;;;;;;5094125;28;20042;-74
2022/07/19 08:33:49;;;;;;;1.77;1.15;;;23.00;57.50;;;;;;5093665;28;20043;-73
2022/07/19 08:36:15;;;;;;;1.45;1.10;;;23.00;57.50;;;;;;5111981;28;20382;-73
2022/07/19 08:38:41;;;;;;;3.25;1.38;;;23.10;57.50;;;;;;5096266;28;20035;-74
2022/07/19 08:41:06;;;;;;;2.60;1.17;;;23.10;57.50;;;;;;5092775;28;20078;-76
2022/07/19 08:43:33;;;;;;;1.80;1.00;;;23.10;57.50;;;;;;5091438;28;20059;-76
2022/07/19 08:46:01;;;;;;;1.95;0.82;;;23.10;57.80;;;;;;5077711;28;20597;-76
2022/07/19 08:48:31;;;;;;;4.20;0.85;;;23.10;58.20;;;;;;5077860;28;20397;-76
2022/07/19 08:50:57;;;;;;;2.47;1.08;;;23.20;58.50;;;;;;5077897;28;20119;-76
2022/07/19 08:53:23;;;;;;;2.17;0.70;;;23.30;58.60;;;;;;5094982;28;20498;-77
2022/07/19 08:55:49;;;;;;;4.28;0.95;;;23.40;58.80;;;;;;5076657;28;20036;-77
2022/07/19 08:58:18;;;;;;;2.97;1.00;;;23.40;58.80;;;;;;5074273;28;20040;-77
2022/07/19 09:00:45;;;;;;;5.80;0.85;;;23.50;58.90;;;;;;5076586;28;20452;-77
2022/07/19 09:03:10;;;;;;;4.60;0.80;;;23.50;58.80;;;;;;5073598;28;20399;-76
2022/07/19 09:05:36;;;;;;;5.72;0.73;;;23.60;59.10;;;;;;5082656;28;20040;-75
2022/07/19 09:08:17;;;;;;;7.25;1.27;;;23.70;59.10;;;;;;5097325;28;20503;-81
2022/07/19 09:11:14;;;;;;;6.75;1.33;;;23.80;59.70;;;;;;5097491;28;20035;-81
2022/07/19 09:13:32;;;;;;;4.78;1.08;;;23.90;59.70;;;;;;5076476;28;20119;-76
2022/07/19 09:15:57;;;;;;;3.22;1.13;;;24.10;60.00;;;;;;5077207;28;20035;-77
2022/07/19 09:18:26;;;;;;;5.38;1.35;;;24.30;59.90;;;;;;5077243;28;20498;-78
2022/07/19 09:20:56;;;;;;;5.35;1.50;;;24.50;59.30;;;;;;5088644;28;20118;-75
2022/07/19 09:23:22;;;;;;;;;;;24.70;58.90;;;;;;5094598;28;20816;-80
2022/07/19 09:25:50;;;;;;;8.95;1.27;;;24.80;58.70;;;;;;5076903;28;19923;-77
2022/07/19 09:28:17;;;;;;;9.15;1.42;;;24.90;57.90;;;;;;5076708;28;20039;-77
2022/07/19 09:30:49;;;;;;;6.07;1.35;;;24.90;57.80;;;;;;5076695;28;20090;-78
2022/07/19 09:36:00;;;;;;;12.88;1.55;;;25.10;57.40;;;;;;5117348;27;20380;-79
2022/07/19 09:44:05;;;;;;;6.35;1.52;;;25.20;57.30;;;;;;5148117;27;1186024;-74
2022/07/19 09:46:36;;;;;;;3.80;0.80;;;25.40;56.80;;;;;;5152356;27;20066;-74
2022/07/19 09:49:13;;;;;;;8.70;1.05;;;25.60;55.30;;;;;;5152419;27;20379;-74
2022/07/19 09:51:41;;;;;;;20.08;3.05;;;25.90;55.00;;;;;;5152691;27;20050;-77
2022/07/19 09:54:09;;;;;;;7.13;1.45;;;26.00;55.10;;;;;;5152228;27;20513;-74
2022/07/19 09:56:37;;;;;;;8.57;1.02;;;26.10;54.80;;;;;;5152720;27;20046;-79
2022/07/19 09:59:04;;;;;;;13.10;2.13;;;26.10;54.80;;;;;;5153248;27;20099;-78
2022/07/19 10:01:30;;;;;;;7.68;1.23;;;26.20;54.90;;;;;;5152879;27;20471;-78
2022/07/19 10:04:02;;;;;;;8.13;1.55;;;26.20;54.70;;;;;;5170671;27;20026;-75
2022/07/19 10:06:28;;;;;;;3.80;1.05;;;26.10;54.60;;;;;;5152447;27;20094;-79
2022/07/19 10:08:56;;;;;;;2.90;0.73;;;26.20;54.60;;;;;;5151473;27;20414;-82
2022/07/19 10:11:22;;;;;;;6.25;1.25;;;26.20;54.50;;;;;;5151879;27;20034;-75
2022/07/19 10:13:50;;;;;;;4.28;0.98;;;26.20;54.50;;;;;;5152320;27;20087;-73
2022/07/19 10:22:24;;;;;;;5.53;0.90;;;26.20;54.60;;;;;;5130053;27;20424;-78
2022/07/19 10:27:38;;;;;;;6.68;2.50;;;26.20;54.40;;;;;;5108921;27;20415;-75
2022/07/19 10:32:48;;;;;;;2.80;1.33;;;26.30;53.80;;;;;;5088912;28;20385;-79
2022/07/19 10:43:20;;;;;;;5.93;1.20;;;26.30;53.00;;;;;;5129866;27;20299;-81
2022/07/19 10:48:48;;;;;;;6.60;1.20;;;26.50;52.70;;;;;;5129154;27;20792;-81
2022/07/19 10:51:29;;;;;;;17.30;1.52;;;26.30;53.80;;;;;;5129217;28;20060;-77
2022/07/19 10:54:12;;;;;;;8.63;0.93;;;26.20;53.20;;;;;;5128457;28;20038;-82
2022/07/19 10:56:41;;;;;;;14.35;1.92;;;26.20;53.50;;;;;;5128588;27;20072;-77
2022/07/19 10:59:09;;;;;;;15.80;1.58;;;26.10;53.70;;;;;;5128801;28;20036;-77
2022/07/19 11:01:37;;;;;;;13.75;1.80;;;26.00;53.80;;;;;;5128724;28;20042;-76
2022/07/19 11:04:28;;;;;;;13.00;1.45;;;25.90;53.90;;;;;;5128654;28;20066;-77
2022/07/19 11:09:55;;;;;;;7.43;1.25;;;25.70;54.10;;;;;;5152274;27;1162500;-78
2022/07/19 11:12:26;;;;;;;6.60;0.88;;;25.60;54.20;;;;;;5153134;27;20074;-77
2022/07/19 11:14:52;;;;;;;14.23;1.65;;;25.60;54.30;;;;;;5153342;27;20037;-77
2022/07/19 11:17:18;;;;;;;11.68;1.20;;;25.50;54.40;;;;;;5152981;27;20056;-77
2022/07/19 11:19:58;;;;;;;11.32;1.10;;;25.50;54.40;;;;;;5152826;27;20042;-77
2022/07/19 11:22:23;;;;;;;5.57;1.08;;;25.40;54.50;;;;;;5152976;27;20094;-76
2022/07/19 11:24:49;;;;;;;7.38;1.17;;;25.40;54.60;;;;;;5171477;27;20038;-76
2022/07/19 11:27:16;;;;;;;9.20;1.23;;;25.30;54.60;;;;;;5152900;27;20069;-77
2022/07/19 11:29:59;;;;;;;9.55;1.08;;;25.30;54.70;;;;;;5152702;27;20035;-77
2022/07/19 11:32:24;;;;;;;7.53;1.73;;;25.20;54.70;;;;;;5171324;27;20075;-76
2022/07/19 11:35:07;;;;;;;4.95;0.98;;;25.20;54.80;;;;;;5152871;27;20034;-77
2022/07/19 11:37:38;;;;;;;2.72;1.10;;;25.20;54.80;;;;;;5152698;27;20064;-77
2022/07/19 11:40:05;;;;;;;4.05;1.08;;;25.10;54.90;;;;;;5152794;27;20119;-77
2022/07/19 11:45:21;;;;;;;5.97;1.00;;;25.10;54.90;;;;;;5089388;27;20409;-76
2022/07/19 11:47:49;;;;;;;3.40;0.90;;;25.10;55.10;;;;;;5088176;28;20048;-76
2022/07/19 11:50:18;;;;;;;4.47;1.25;;;25.00;55.00;;;;;;5088049;28;20093;-76
2022/07/19 11:52:46;;;;;;;4.82;1.30;;;25.00;55.10;;;;;;5071604;28;20075;-77
2022/07/19 11:55:13;;;;;;;3.78;0.65;;;25.00;55.10;;;;;;5122047;27;20093;-77
2022/07/19 11:57:39;;;;;;;12.55;1.40;;;25.00;55.10;;;;;;5088219;28;20076;-76
2022/07/19 12:00:06;;;;;;;4.55;0.93;;;24.90;55.10;;;;;;5088132;28;20419;-76
2022/07/19 12:05:36;;;;;;;2.10;0.82;;;24.90;55.10;;;;;;5130278;27;20358;-77
2022/07/19 12:08:04;;;;;;;4.20;1.00;;;24.90;55.20;;;;;;5129010;27;20043;-77
2022/07/19 12:16:11;;;;;;;3.88;0.60;;;24.90;55.20;;;;;;5089289;27;20385;-76
2022/07/19 12:18:57;;;;;;;2.95;0.60;;;24.90;55.20;;;;;;5088025;28;20079;-76
2022/07/19 12:21:41;;;;;;;3.80;0.82;;;24.90;55.20;;;;;;5088208;28;20036;-76
2022/07/19 12:29:36;;;;;;;1.73;0.65;;;24.90;55.20;;;;;;5089425;27;20356;-76
2022/07/19 12:32:11;;;;;;;6.55;0.82;;;24.90;55.20;;;;;;5105090;28;20044;-76
2022/07/19 12:40:21;;;;;;;1.30;0.73;;;24.80;55.20;;;;;;5130225;27;20358;-76
2022/07/19 12:42:52;;;;;;;1.10;0.68;;;24.90;55.20;;;;;;5128993;28;20061;-76
2022/07/19 12:45:21;;;;;;;1.35;0.55;;;24.90;55.20;;;;;;5128834;28;20471;-76
2022/07/19 12:47:49;;;;;;;1.95;0.80;;;24.90;55.20;;;;;;5128893;28;20074;-77
2022/07/19 12:50:23;;;;;;;1.92;0.60;;;24.90;55.20;;;;;;5128860;28;20054;-76
2022/07/19 12:52:51;;;;;;;1.80;0.60;;;24.80;55.10;;;;;;5128758;28;20039;-77
2022/07/19 12:55:17;;;;;;;1.73;0.63;;;24.90;55.10;;;;;;5129081;28;20108;-77
2022/07/19 12:57:43;;;;;;;2.00;0.70;;;24.80;55.00;;;;;;5128715;28;20043;-76
2022/07/19 13:00:09;;;;;;;1.95;0.70;;;24.80;55.00;;;;;;5129933;28;20048;-76
2022/07/19 13:02:34;;;;;;;3.05;0.50;;;24.90;55.10;;;;;;5128520;28;20509;-76
2022/07/19 13:05:00;;;;;;;3.67;0.70;;;24.90;55.00;;;;;;5128817;28;20027;-77
2022/07/19 13:07:29;;;;;;;2.85;0.60;;;24.80;55.00;;;;;;5128408;28;20536;-76
2022/07/19 13:09:54;;;;;;;3.00;0.65;;;24.90;55.00;;;;;;5128725;28;20048;-76
2022/07/19 13:12:20;;;;;;;3.60;0.70;;;24.90;55.00;;;;;;5128431;28;20509;-76
2022/07/19 13:14:46;;;;;;;1.33;0.80;;;24.90;55.00;;;;;;5129743;27;20051;-76
2022/07/19 13:17:12;;;;;;;2.97;0.70;;;24.90;55.00;;;;;;5128228;28;20043;-76
2022/07/19 13:19:38;;;;;;;1.23;0.50;;;24.90;54.90;;;;;;5124523;28;20096;-76
2022/07/19 13:22:05;;;;;;;1.42;0.50;;;24.90;54.90;;;;;;5107961;28;20035;-76
2022/07/19 13:24:30;;;;;;;2.45;0.70;;;24.90;54.90;;;;;;5108013;28;20040;-77
2022/07/19 13:26:56;;;;;;;3.38;0.63;;;24.90;54.80;;;;;;5107927;28;20390;-76
2022/07/19 13:29:22;;;;;;;1.48;0.45;;;24.90;54.90;;;;;;5107838;28;20085;-77
2022/07/19 13:31:51;;;;;;;2.10;0.60;;;24.90;54.80;;;;;;5107566;28;20532;-76
2022/07/19 13:34:17;;;;;;;1.20;0.40;;;24.90;54.80;;;;;;5107520;28;20624;-76
2022/07/19 13:36:43;;;;;;;1.90;0.40;;;24.90;55.20;;;;;;5107793;28;20040;-76
2022/07/19 13:39:13;;;;;;;1.42;0.40;;;24.90;54.80;;;;;;5108438;28;20056;-76
2022/07/19 13:41:39;;;;;;;2.28;0.60;;;24.90;54.70;;;;;;5107329;28;20101;-76